Bismarck, ND

5:36 PM CST on February 05, 2016 (GMT -0600)
Lincoln | | Change Station
CLOSE
Current Station
Personal Weather Station
Location: Lincoln, ND
Elevation: 1670 ft
Nearby Weather Stations
Active Advisory: High Wind Watch

Elev 1670 ft 46.76 °N, 100.71 °W | Updated 10 minutes ago

Clear
Clear
38.3 °F
Feels Like 35 °F
N
4.2
Wind Variable Wind from WSW

Today
High -- | Low -- °F
--% Chance of Precip.
Yesterday
High -- | Low -- °F
Precip. -- in
Pressure 30.17 in
Visibility 10.0 miles
Clouds Clear
Windchill 35 °F
Dew Point 27 °F
Humidity 63%
Rainfall 0.00 in
Snow Depth Not available.
8:02 AM 5:51 PM
Waning Crescent, 9% visible
METAR KBIS 052252Z 28008KT 10SM CLR 06/M04 A3012 RMK AO2 SLP216 T00611044
Pressure 30.17 in
Visibility 10.0 miles
Clouds Clear
Windchill 35 °F
Dew Point 27 °F
Humidity 63%
Rainfall 0.00 in
Snow Depth Not available.
8:02 AM 5:51 PM
Waning Crescent, 9% visible
METAR KBIS 052252Z 28008KT 10SM CLR 06/M04 A3012 RMK AO2 SLP216 T00611044

10-Day Weather Forecast

Almanac

Astronomy

Feb. 05, 2016 Rise Set
Actual Time
Civil Twilight
Nautical Twilight
Astronomical Twilight
Moon
Length of Visible Light
Length of Day
Tomorrow will be .
, % of the Moon is Illuminated

Today's Extremes

State Highs State Lows

Community

WunderPhotos

Upload Photos

1,890,881 photos uploaded!

WunderBlog® & News

Nearby

Air Quality

  Air Quality AQ Index Pollutant
Not available.

Snow Depth

Station Depth Elevation

Earthquake Activity

City Distance Mag. Time & Date
Minimum magnitude displayed is 2.5.

Coastal Water Temperatures

Place Temperature

Stations

Nearby Weather Stations

Station Location Temp. Windchill Dew Point Humidity Wind Precip. Elev Updated Type
                   

Watches & Warnings

High Wind Watch
Issued: 2:44 PM CST Feb. 5, 2016 – National Weather Service

... High wind watch now in effect from late Saturday night through
Sunday evening...

* timing... late Saturday night through Sunday evening.

* Winds... northwest winds gusting up to 65 mph are possible.

* Impacts... travel may become hazardous over western into many
portions of central North Dakota. Snow and blowing snow may
reduce visibilities on Sunday.

Precautionary/preparedness actions...

A high wind watch means there is the potential for a hazardous
high wind event. Sustained winds of at least 40 mph... or gusts of
58 mph or stronger may occur. Continue to monitor the latest
forecasts.



Jjs/jv